Terminal Aerodrome Forecast
Issued by NWS Lake Charles, LA

Home | Current Version | Previous Version | Text Only | Print | Product List | Glossary On
Versions: 1 2 3 4 5 6 7 8 9 10 11 12
000
FTUS44 KLCH 272100 AAA
TAFARA
TAF AMD
KARA 272115Z 2721/2818 19015KT P6SM -RA SCT015 OVC025
      TEMPO 2721/2722 BKN015
     FM272200 21007KT 6SM -RA BR VCTS BKN002 OVC007CB
      TEMPO 2722/2802 1/2SM TSRA FG
     FM280700 33011KT 4SM -RA BR OVC003=

USA.gov is the U.S. government's official web portal to all federal, state and local government web resources and services.